Time;durP1;ratioP1;P1;durP2;ratioP2;P2;SDS_P1;SDS_P2;PMS_P1;PMS_P2;Temp;Humidity;BMP_temperature;BMP_pressure;BME280_temperature;BME280_humidity;BME280_pressure;Samples;Min_cycle;Max_cycle;Signal;HPM_P1;HPM_P2
2022/01/26 00:00:20;;;;;;;19.70;8.93;;;;;;;;;;5090573;28;20545;-70
2022/01/26 00:07:51;;;;;;;21.87;10.10;;;;;;;;;;5089967;28;20142;-71
2022/01/26 00:10:17;;;;;;;20.57;11.03;;;;;;;;;;5089673;28;20186;-71
2022/01/26 00:12:43;;;;;;;27.27;11.60;;;;;;;;;;5089620;28;20038;-70
2022/01/26 00:15:10;;;;;;;20.83;10.27;;;;;;;;;;5088264;28;20032;-72
2022/01/26 00:17:35;;;;;;;21.47;10.27;;;;;;;;;;5089762;28;20051;-73
2022/01/26 00:20:14;;;;;;;18.03;9.77;;;;;;;;;;5088102;28;20081;-71
2022/01/26 00:23:11;;;;;;;21.13;10.63;;;;;;;;;;5088597;28;20512;-72
2022/01/26 00:38:53;;;;;;;17.60;8.63;;;;;;;;;;5089465;28;20051;-69
2022/01/26 00:41:32;;;;;;;23.60;10.33;;;;;;;;;;5088521;28;20034;-71
2022/01/26 00:43:59;;;;;;;17.27;9.23;;;;;;;;;;5087699;28;20032;-71
2022/01/26 00:46:25;;;;;;;18.40;8.83;;;;;;;;;;5087290;28;20456;-70
2022/01/26 00:48:51;;;;;;;16.73;9.03;;;;;;;;;;5087875;28;20168;-72
2022/01/26 00:51:19;;;;;;;15.60;9.00;;;;;;;;;;5089362;28;20495;-72
2022/01/26 00:53:49;;;;;;;17.47;8.67;;;;;;;;;;5087850;28;20322;-71
2022/01/26 00:56:15;;;;;;;19.60;10.23;;;;;;;;;;5089254;28;20027;-71
2022/01/26 00:58:42;;;;;;;16.07;8.67;;;;;;;;;;5087932;28;20031;-71
2022/01/26 01:01:07;;;;;;;14.93;7.47;;;;;;;;;;5089108;28;20028;-71
2022/01/26 01:03:37;;;;;;;16.20;7.90;;;;;;;;;;5087751;28;20686;-71
2022/01/26 01:06:13;;;;;;;15.33;8.30;;;;;;;;;;5087585;28;20031;-71
2022/01/26 01:08:40;;;;;;;17.77;7.90;;;;;;;;;;5089260;28;20372;-71
2022/01/26 01:11:07;;;;;;;19.50;9.17;;;;;;;;;;5087603;28;20043;-72
2022/01/26 01:13:36;;;;;;;18.33;9.77;;;;;;;;;;5087771;28;20024;-72
2022/01/26 01:16:03;;;;;;;18.93;9.90;;;;;;;;;;5088817;28;20512;-72
2022/01/26 01:18:45;;;;;;;18.67;9.77;;;;;;;;;;5087566;28;20411;-70
2022/01/26 01:22:17;;;;;;;18.15;8.63;;;;;;;;;;5089071;28;20031;-71
2022/01/26 01:26:58;;;;;;;15.90;7.80;;;;;;;;;;5089094;28;20085;-73
2022/01/26 01:29:34;;;;;;;16.77;9.10;;;;;;;;;;5088687;28;20055;-72
2022/01/26 01:32:02;;;;;;;16.57;8.30;;;;;;;;;;5088816;28;20403;-70
2022/01/26 01:34:36;;;;;;;16.47;8.83;;;;;;;;;;5088605;28;20054;-73
2022/01/26 01:37:06;;;;;;;17.50;9.03;;;;;;;;;;5087515;28;20338;-72
2022/01/26 01:39:33;;;;;;;17.70;10.07;;;;;;;;;;5089003;28;20024;-71
2022/01/26 01:42:00;;;;;;;18.10;8.77;;;;;;;;;;5087374;28;20433;-70
2022/01/26 01:44:27;;;;;;;19.50;10.20;;;;;;;;;;5088821;28;20107;-70
2022/01/26 01:46:53;;;;;;;16.83;8.70;;;;;;;;;;5086989;28;20069;-71
2022/01/26 01:49:19;;;;;;;21.27;8.87;;;;;;;;;;5087120;28;20423;-73
2022/01/26 01:51:55;;;;;;;15.93;8.20;;;;;;;;;;5088222;28;20032;-73
2022/01/26 01:54:21;;;;;;;20.40;9.90;;;;;;;;;;5087640;28;20035;-71
2022/01/26 01:56:57;;;;;;;17.60;9.00;;;;;;;;;;5088666;28;20016;-71
2022/01/26 01:59:25;;;;;;;17.63;9.23;;;;;;;;;;5090568;28;20024;-70
2022/01/26 02:01:50;;;;;;;19.93;8.77;;;;;;;;;;5092304;28;20032;-71
2022/01/26 02:04:16;;;;;;;19.83;9.33;;;;;;;;;;5092314;28;20494;-71
2022/01/26 02:06:43;;;;;;;20.37;9.33;;;;;;;;;;5091363;28;20024;-72
2022/01/26 02:09:09;;;;;;;15.80;9.00;;;;;;;;;;5092549;28;20357;-71
2022/01/26 02:11:35;;;;;;;19.07;9.20;;;;;;;;;;5092188;28;20130;-71
2022/01/26 02:14:06;;;;;;;17.90;9.67;;;;;;;;;;5090635;28;20502;-72
2022/01/26 02:17:00;;;;;;;20.00;9.23;;;;;;;;;;5090777;28;20035;-69
2022/01/26 02:54:45;;;;;;;19.83;8.70;;;;;;;;;;5091761;28;20499;-72
2022/01/26 03:02:53;;;;;;;28.50;11.40;;;;;;;;;;5091384;28;20384;-71
2022/01/26 03:05:08;;;;;;;20.45;9.82;;;;;;;;;;5088819;28;20047;-72
2022/01/26 03:07:42;;;;;;;24.93;8.97;;;;;;;;;;5090044;28;20059;-73
2022/01/26 03:13:09;;;;;;;21.70;10.27;;;;;;;;;;5091314;28;20016;-71
2022/01/26 03:15:44;;;;;;;21.37;10.37;;;;;;;;;;5090541;28;20471;-70
2022/01/26 03:20:37;;;;;;;18.90;8.77;;;;;;;;;;5090999;28;20127;-72
2022/01/26 03:28:58;;;;;;;20.93;9.07;;;;;;;;;;5091246;28;20114;-71
2022/01/26 03:34:11;;;;;;;19.07;8.77;;;;;;;;;;5090511;28;20027;-72
2022/01/26 03:36:48;;;;;;;16.80;8.50;;;;;;;;;;5089292;28;20111;-72
2022/01/26 03:39:17;;;;;;;17.00;9.20;;;;;;;;;;5088795;28;20488;-71
2022/01/26 03:41:49;;;;;;;14.70;7.57;;;;;;;;;;5089127;28;20024;-71
2022/01/26 03:44:16;;;;;;;16.90;8.98;;;;;;;;;;5088858;28;20468;-72
2022/01/26 03:46:42;;;;;;;18.87;8.80;;;;;;;;;;5090594;28;20051;-70
2022/01/26 03:49:10;;;;;;;12.93;7.63;;;;;;;;;;5090193;28;20028;-72
2022/01/26 03:51:35;;;;;;;13.67;7.63;;;;;;;;;;5088887;28;20027;-70
2022/01/26 03:54:03;;;;;;;13.93;7.73;;;;;;;;;;5090107;28;20024;-70
2022/01/26 03:56:28;;;;;;;15.37;6.37;;;;;;;;;;5090175;28;20027;-72
2022/01/26 03:58:54;;;;;;;18.20;6.53;;;;;;;;;;5090375;28;20041;-71
2022/01/26 04:01:20;;;;;;;18.03;7.77;;;;;;;;;;5090089;28;20551;-72
2022/01/26 04:03:45;;;;;;;10.43;6.10;;;;;;;;;;5090011;28;20476;-72
2022/01/26 04:06:11;;;;;;;16.20;6.50;;;;;;;;;;5088472;28;20026;-72
2022/01/26 04:08:39;;;;;;;14.80;7.07;;;;;;;;;;5089848;28;20034;-72
2022/01/26 04:13:49;;;;;;;13.40;6.40;;;;;;;;;;5090694;28;20034;-73
2022/01/26 04:16:15;;;;;;;11.93;5.70;;;;;;;;;;5088017;28;20020;-71
2022/01/26 04:18:42;;;;;;;12.50;5.43;;;;;;;;;;5088243;28;20034;-72
2022/01/26 04:21:19;;;;;;;14.13;6.33;;;;;;;;;;5088088;28;20109;-70
2022/01/26 04:26:16;;;;;;;12.03;6.47;;;;;;;;;;5089364;28;20084;-71
2022/01/26 04:28:48;;;;;;;11.40;6.30;;;;;;;;;;5088339;28;20035;-70
2022/01/26 04:31:15;;;;;;;16.13;7.33;;;;;;;;;;5090561;28;20028;-72
2022/01/26 04:33:40;;;;;;;15.10;7.47;;;;;;;;;;5092784;28;20069;-72
2022/01/26 04:36:10;;;;;;;9.67;5.63;;;;;;;;;;5092998;28;20387;-70
2022/01/26 04:38:42;;;;;;;10.07;5.37;;;;;;;;;;5092903;28;20072;-70
2022/01/26 04:43:56;;;;;;;11.73;5.50;;;;;;;;;;5089295;28;20077;-71
2022/01/26 04:46:21;;;;;;;10.97;5.50;;;;;;;;;;5087897;28;20024;-70
2022/01/26 04:48:47;;;;;;;12.00;6.10;;;;;;;;;;5089298;28;20024;-72
2022/01/26 04:51:13;;;;;;;14.23;6.27;;;;;;;;;;5089060;28;20387;-72
2022/01/26 04:53:39;;;;;;;12.07;5.97;;;;;;;;;;5089238;28;20020;-71
2022/01/26 04:56:05;;;;;;;12.80;6.60;;;;;;;;;;5089003;28;20380;-71
2022/01/26 04:58:30;;;;;;;12.87;6.33;;;;;;;;;;5087702;28;20051;-69
2022/01/26 05:00:56;;;;;;;11.10;6.23;;;;;;;;;;5089183;28;20380;-75
2022/01/26 05:03:21;;;;;;;7.77;4.73;;;;;;;;;;5089343;28;20468;-71
2022/01/26 05:05:46;;;;;;;9.17;4.80;;;;;;;;;;5087858;28;20024;-71
2022/01/26 05:08:12;;;;;;;9.57;4.87;;;;;;;;;;5087765;28;20024;-72
2022/01/26 05:10:42;;;;;;;8.87;5.30;;;;;;;;;;5087893;28;20047;-72
2022/01/26 05:13:10;;;;;;;16.83;5.77;;;;;;;;;;5089547;28;20028;-70
2022/01/26 05:15:35;;;;;;;8.63;4.40;;;;;;;;;;5087815;28;20038;-72
2022/01/26 05:18:01;;;;;;;7.67;4.13;;;;;;;;;;5089227;28;20028;-71
2022/01/26 05:20:27;;;;;;;8.20;4.97;;;;;;;;;;5088151;28;20057;-71
2022/01/26 05:22:52;;;;;;;11.00;5.07;;;;;;;;;;5087516;28;20514;-72
2022/01/26 05:25:18;;;;;;;9.80;4.50;;;;;;;;;;5087535;28;20024;-72
2022/01/26 05:27:43;;;;;;;8.47;4.63;;;;;;;;;;5089376;28;20028;-71
2022/01/26 05:30:09;;;;;;;10.67;4.73;;;;;;;;;;5087257;28;20168;-70
2022/01/26 05:32:35;;;;;;;9.43;4.47;;;;;;;;;;5089580;28;20455;-71
2022/01/26 05:35:00;;;;;;;9.87;4.73;;;;;;;;;;5091359;28;20088;-73
2022/01/26 05:37:26;;;;;;;8.73;4.40;;;;;;;;;;5092701;28;20052;-72
2022/01/26 05:39:52;;;;;;;8.90;4.77;;;;;;;;;;5092996;28;20031;-71
2022/01/26 05:42:17;;;;;;;10.10;3.97;;;;;;;;;;5092415;28;20049;-71
2022/01/26 05:44:44;;;;;;;7.60;3.60;;;;;;;;;;5092731;28;20032;-73
2022/01/26 05:47:16;;;;;;;17.10;4.47;;;;;;;;;;5091136;28;20020;-71
2022/01/26 05:49:42;;;;;;;8.17;4.83;;;;;;;;;;5091081;28;20032;-71
2022/01/26 05:52:08;;;;;;;10.97;4.53;;;;;;;;;;5092402;28;20076;-72
2022/01/26 05:54:33;;;;;;;4.00;3.03;;;;;;;;;;5092377;28;20059;-74
2022/01/26 05:56:59;;;;;;;16.50;7.67;;;;;;;;;;5092644;28;20078;-72
2022/01/26 05:59:24;;;;;;;7.93;4.17;;;;;;;;;;5090938;28;20020;-70
2022/01/26 06:01:51;;;;;;;5.90;3.93;;;;;;;;;;5092275;28;20024;-70
2022/01/26 06:04:18;;;;;;;10.27;4.23;;;;;;;;;;5090317;28;20028;-71
2022/01/26 06:06:43;;;;;;;5.53;3.30;;;;;;;;;;5090770;28;20020;-70
2022/01/26 06:09:09;;;;;;;12.37;7.10;;;;;;;;;;5090669;28;20031;-71
2022/01/26 06:11:35;;;;;;;18.17;4.13;;;;;;;;;;5092143;28;20028;-71
2022/01/26 06:14:00;;;;;;;12.40;4.37;;;;;;;;;;5090614;28;20051;-72
2022/01/26 06:16:26;;;;;;;5.60;3.67;;;;;;;;;;5091801;28;20027;-72
2022/01/26 06:18:51;;;;;;;5.97;3.80;;;;;;;;;;5090831;28;20028;-73
2022/01/26 06:21:17;;;;;;;5.60;4.03;;;;;;;;;;5091692;28;20278;-72
2022/01/26 06:23:43;;;;;;;5.07;3.83;;;;;;;;;;5090422;28;20035;-71
2022/01/26 06:26:09;;;;;;;6.43;3.80;;;;;;;;;;5090293;28;20047;-73
2022/01/26 06:28:34;;;;;;;7.37;4.67;;;;;;;;;;5092099;28;20031;-73
2022/01/26 06:31:06;;;;;;;5.90;4.07;;;;;;;;;;5090538;28;20402;-72
2022/01/26 06:33:33;;;;;;;10.20;5.20;;;;;;;;;;5090111;28;20024;-71
2022/01/26 06:36:00;;;;;;;6.13;4.13;;;;;;;;;;5090354;28;20024;-71
2022/01/26 06:38:27;;;;;;;8.33;4.10;;;;;;;;;;5089727;28;20059;-71
2022/01/26 06:40:54;;;;;;;4.90;4.40;;;;;;;;;;5089879;28;20084;-72
2022/01/26 06:43:21;;;;;;;6.73;4.40;;;;;;;;;;5090859;28;20017;-70
2022/01/26 06:45:55;;;;;;;6.40;4.23;;;;;;;;;;5088843;28;20479;-71
2022/01/26 06:51:05;;;;;;;12.37;4.53;;;;;;;;;;5091759;28;20081;-71
2022/01/26 06:53:30;;;;;;;12.97;4.77;;;;;;;;;;5090180;28;20422;-72
2022/01/26 06:55:57;;;;;;;9.80;3.90;;;;;;;;;;5090360;28;20042;-72
2022/01/26 06:58:22;;;;;;;7.50;4.50;;;;;;;;;;5091207;28;20020;-72
2022/01/26 07:00:48;;;;;;;18.00;4.97;;;;;;;;;;5091102;28;20027;-70
2022/01/26 07:03:14;;;;;;;5.10;3.67;;;;;;;;;;5089423;28;20375;-72
2022/01/26 07:05:40;;;;;;;4.93;3.40;;;;;;;;;;5089473;28;20387;-71
2022/01/26 07:08:06;;;;;;;5.00;3.30;;;;;;;;;;5089376;28;20070;-72
2022/01/26 07:10:32;;;;;;;6.47;3.53;;;;;;;;;;5087381;28;20454;-72
2022/01/26 07:12:58;;;;;;;7.97;3.60;;;;;;;;;;5090638;28;20107;-73
2022/01/26 07:23:19;;;;;;;7.23;4.17;;;;;;;;;;5070817;28;20012;-71
2022/01/26 07:25:44;;;;;;;5.13;3.87;;;;;;;;;;5069836;28;20031;-72
2022/01/26 07:28:10;;;;;;;4.37;3.73;;;;;;;;;;5070080;28;20028;-71
2022/01/26 07:30:36;;;;;;;6.13;3.57;;;;;;;;;;5070050;28;20078;-71
2022/01/26 07:33:03;;;;;;;4.63;3.23;;;;;;;;;;5068322;28;20024;-72
2022/01/26 07:35:28;;;;;;;7.57;3.97;;;;;;;;;;5064697;28;20495;-72
2022/01/26 07:37:57;;;;;;;5.37;3.90;;;;;;;;;;5060156;28;20060;-74
2022/01/26 07:40:23;;;;;;;5.97;3.43;;;;;;;;;;5064277;28;20028;-70
2022/01/26 07:42:49;;;;;;;4.47;3.30;;;;;;;;;;5063737;28;20041;-72
2022/01/26 07:45:14;;;;;;;6.77;4.00;;;;;;;;;;5061662;28;20074;-73
2022/01/26 07:47:40;;;;;;;6.00;4.03;;;;;;;;;;5061923;28;20028;-72
2022/01/26 07:50:12;;;;;;;5.17;3.67;;;;;;;;;;5064243;28;20081;-72
2022/01/26 07:52:41;;;;;;;6.05;3.97;;;;;;;;;;5060926;28;20040;-75
2022/01/26 07:55:09;;;;;;;11.87;4.20;;;;;;;;;;5063742;28;20048;-73
2022/01/26 07:57:35;;;;;;;9.93;4.10;;;;;;;;;;5028148;28;20063;-74
2022/01/26 08:00:02;;;;;;;7.97;4.53;;;;;;;;;;5061390;28;20056;-74
2022/01/26 08:02:28;;;;;;;9.63;4.40;;;;;;;;;;5061701;28;20025;-73
2022/01/26 08:04:53;;;;;;;5.53;4.17;;;;;;;;;;5061173;28;20081;-70
2022/01/26 08:07:19;;;;;;;6.27;4.37;;;;;;;;;;5040137;28;20135;-72
2022/01/26 08:09:44;;;;;;;7.33;4.00;;;;;;;;;;5055307;28;20541;-72
2022/01/26 08:12:11;;;;;;;9.57;3.90;;;;;;;;;;5058588;28;20106;-72
2022/01/26 08:14:37;;;;;;;8.97;4.87;;;;;;;;;;5059819;28;20117;-73
2022/01/26 08:17:05;;;;;;;6.03;4.00;;;;;;;;;;5057047;28;20074;-71
2022/01/26 08:19:30;;;;;;;6.87;4.40;;;;;;;;;;5058799;28;20033;-71
2022/01/26 08:22:00;;;;;;;8.10;3.87;;;;;;;;;;5056792;28;20038;-72
2022/01/26 08:24:27;;;;;;;6.90;4.53;;;;;;;;;;5058333;28;20095;-72
2022/01/26 08:26:56;;;;;;;5.23;3.83;;;;;;;;;;5058296;28;20131;-72
2022/01/26 08:29:27;;;;;;;12.00;4.10;;;;;;;;;;5056635;28;20035;-72
2022/01/26 08:31:53;;;;;;;5.35;3.45;;;;;;;;;;5060539;28;20081;-73
2022/01/26 08:34:18;;;;;;;8.63;3.37;;;;;;;;;;5061360;28;20108;-74
2022/01/26 08:36:45;;;;;;;6.77;4.03;;;;;;;;;;5063033;28;20099;-73
2022/01/26 08:39:10;;;;;;;15.37;3.73;;;;;;;;;;5059186;28;20590;-72
2022/01/26 08:41:36;;;;;;;7.57;3.47;;;;;;;;;;5059883;28;20032;-71
2022/01/26 08:44:02;;;;;;;8.37;3.43;;;;;;;;;;5062147;28;20597;-70
2022/01/26 08:46:29;;;;;;;3.80;3.03;;;;;;;;;;5059939;28;20047;-72
2022/01/26 08:48:54;;;;;;;5.30;3.70;;;;;;;;;;5058265;28;20059;-72
2022/01/26 08:51:20;;;;;;;6.00;3.80;;;;;;;;;;5060190;28;20024;-74
2022/01/26 08:53:46;;;;;;;8.43;4.40;;;;;;;;;;5061529;28;20479;-74
2022/01/26 08:56:12;;;;;;;10.33;3.87;;;;;;;;;;5062240;28;20036;-73
2022/01/26 08:58:38;;;;;;;6.10;4.10;;;;;;;;;;5058747;28;20519;-71
2022/01/26 09:01:03;;;;;;;6.80;3.83;;;;;;;;;;5060678;28;20103;-70
2022/01/26 09:03:30;;;;;;;14.90;4.83;;;;;;;;;;5058622;28;20056;-73
2022/01/26 09:05:56;;;;;;;5.87;3.33;;;;;;;;;;5058822;28;20036;-73
2022/01/26 09:08:21;;;;;;;6.23;3.60;;;;;;;;;;5057592;28;20107;-73
2022/01/26 09:10:47;;;;;;;5.10;3.07;;;;;;;;;;5060605;28;20375;-72
2022/01/26 09:13:12;;;;;;;4.37;3.20;;;;;;;;;;5061067;28;20535;-72
2022/01/26 09:15:40;;;;;;;8.70;3.27;;;;;;;;;;5061722;28;20031;-72
2022/01/26 09:18:08;;;;;;;4.10;2.57;;;;;;;;;;5058113;28;20460;-72
2022/01/26 09:20:36;;;;;;;5.57;2.93;;;;;;;;;;5057711;28;20707;-73
2022/01/26 09:23:02;;;;;;;5.00;2.77;;;;;;;;;;5075640;28;20563;-72
2022/01/26 09:25:28;;;;;;;2.80;2.23;;;;;;;;;;5058710;28;20510;-70
2022/01/26 09:27:55;;;;;;;3.97;2.70;;;;;;;;;;5056929;28;20147;-72
2022/01/26 09:30:21;;;;;;;6.00;3.50;;;;;;;;;;5060080;28;20024;-73
2022/01/26 09:32:46;;;;;;;3.47;2.40;;;;;;;;;;5059828;28;20028;-71
2022/01/26 09:35:13;;;;;;;4.93;3.00;;;;;;;;;;5062094;28;20082;-73
2022/01/26 09:37:38;;;;;;;4.17;2.77;;;;;;;;;;5058933;28;20112;-73
2022/01/26 09:40:05;;;;;;;7.10;3.30;;;;;;;;;;5058090;28;20381;-73
2022/01/26 09:42:32;;;;;;;4.80;2.93;;;;;;;;;;5057922;28;20089;-73
2022/01/26 09:45:00;;;;;;;8.40;3.50;;;;;;;;;;5061335;28;20036;-72
2022/01/26 09:47:26;;;;;;;4.47;3.03;;;;;;;;;;5057392;28;20040;-72
2022/01/26 09:49:52;;;;;;;4.03;2.90;;;;;;;;;;5060055;28;20024;-72
2022/01/26 09:52:26;;;;;;;6.50;3.47;;;;;;;;;;5060695;28;20036;-72
2022/01/26 09:54:55;;;;;;;4.30;2.60;;;;;;;;;;5055246;28;20408;-73
2022/01/26 09:57:21;;;;;;;6.60;3.23;;;;;;;;;;5059390;28;20036;-74
2022/01/26 09:59:46;;;;;;;4.53;3.03;;;;;;;;;;5059638;28;20129;-73
2022/01/26 10:02:26;;;;;;;12.47;4.00;;;;;;;;;;5060193;28;20411;-74
2022/01/26 10:05:03;;;;;;;5.00;3.27;;;;;;;;;;5060813;28;20032;-72
2022/01/26 10:07:44;;;;;;;4.13;2.80;;;;;;;;;;5058515;28;20032;-75
2022/01/26 10:15:46;;;;;;;5.30;2.87;;;;;;;;;;5058449;28;20046;-71
2022/01/26 10:18:16;;;;;;;3.83;3.00;;;;;;;;;;5058528;28;20465;-72
2022/01/26 10:20:48;;;;;;;4.77;3.03;;;;;;;;;;5064131;28;20137;-72
2022/01/26 10:23:17;;;;;;;7.80;3.20;;;;;;;;;;5066483;28;20571;-72
2022/01/26 10:25:46;;;;;;;5.37;2.90;;;;;;;;;;5062118;28;20081;-73
2022/01/26 10:28:14;;;;;;;5.67;3.50;;;;;;;;;;5044950;28;20029;-71
2022/01/26 10:30:45;;;;;;;3.93;2.93;;;;;;;;;;5065553;28;20052;-71
2022/01/26 10:33:13;;;;;;;4.63;3.17;;;;;;;;;;5061640;28;20028;-74
2022/01/26 10:35:39;;;;;;;6.90;3.67;;;;;;;;;;5062324;28;20499;-72
2022/01/26 10:38:05;;;;;;;13.43;5.23;;;;;;;;;;5060798;28;20155;-73
2022/01/26 10:40:31;;;;;;;10.37;3.93;;;;;;;;;;5061904;28;20081;-72
2022/01/26 10:43:09;;;;;;;9.17;3.80;;;;;;;;;;5075569;28;20382;-72
2022/01/26 10:46:06;;;;;;;6.40;3.83;;;;;;;;;;5060700;28;20093;-71
2022/01/26 10:49:03;;;;;;;7.47;3.90;;;;;;;;;;5058311;28;20052;-74
2022/01/26 10:54:37;;;;;;;8.60;4.40;;;;;;;;;;5054518;28;20407;-74
2022/01/26 10:57:07;;;;;;;;;;;;;;;;;;5058753;28;20020;-74
2022/01/26 10:59:34;;;;;;;7.73;4.50;;;;;;;;;;5063862;28;19920;-72
2022/01/26 11:02:07;;;;;;;10.37;4.97;;;;;;;;;;5063083;28;20025;-72
2022/01/26 11:04:43;;;;;;;8.63;4.10;;;;;;;;;;5062598;28;20508;-73
2022/01/26 11:07:10;;;;;;;8.23;4.30;;;;;;;;;;5063033;28;20455;-73
2022/01/26 11:09:39;;;;;;;9.77;4.70;;;;;;;;;;5062655;28;20165;-72
2022/01/26 11:12:07;;;;;;;6.80;4.37;;;;;;;;;;5063321;28;20075;-73
2022/01/26 11:14:50;;;;;;;9.93;5.33;;;;;;;;;;5060819;28;20032;-72
2022/01/26 11:17:35;;;;;;;10.83;4.83;;;;;;;;;;5063682;28;20632;-72
2022/01/26 11:20:29;;;;;;;10.30;4.60;;;;;;;;;;5061554;28;20036;-74
2022/01/26 11:22:56;;;;;;;11.80;5.20;;;;;;;;;;5064665;28;20021;-72
2022/01/26 11:25:28;;;;;;;9.80;5.60;;;;;;;;;;5062111;28;20020;-73
2022/01/26 11:27:55;;;;;;;12.32;8.88;;;;;;;;;;5060263;28;20039;-74
2022/01/26 11:30:32;;;;;;;13.00;6.43;;;;;;;;;;5062630;28;20032;-74
2022/01/26 11:33:13;;;;;;;14.13;7.73;;;;;;;;;;5059890;28;20441;-72
2022/01/26 11:35:43;;;;;;;12.23;6.40;;;;;;;;;;5061919;28;20043;-74
2022/01/26 11:47:00;;;;;;;16.80;7.17;;;;;;;;;;5055605;28;20034;-74
2022/01/26 11:49:43;;;;;;;16.10;6.77;;;;;;;;;;5057984;28;20053;-71
2022/01/26 11:52:29;;;;;;;13.23;6.45;;;;;;;;;;5056182;28;20804;-72
2022/01/26 11:54:58;;;;;;;60.23;21.93;;;;;;;;;;5056774;28;20036;-74
2022/01/26 11:58:09;;;;;;;15.77;7.43;;;;;;;;;;5054014;28;20506;-72
2022/01/26 12:00:49;;;;;;;16.27;7.80;;;;;;;;;;5029653;28;20572;-73
2022/01/26 12:03:32;;;;;;;18.30;8.50;;;;;;;;;;5056814;28;20090;-73
2022/01/26 12:05:59;;;;;;;14.83;7.57;;;;;;;;;;5054734;28;20036;-75
2022/01/26 12:08:39;;;;;;;16.80;7.03;;;;;;;;;;5070799;28;20121;-73
2022/01/26 12:11:07;;;;;;;14.33;7.73;;;;;;;;;;5056078;28;20028;-73
2022/01/26 12:13:36;;;;;;;15.93;7.10;;;;;;;;;;5057914;28;20469;-71
2022/01/26 12:16:15;;;;;;;18.00;7.80;;;;;;;;;;5058769;28;20124;-73
2022/01/26 12:18:52;;;;;;;15.83;7.27;;;;;;;;;;5062030;28;20361;-71
2022/01/26 12:32:51;;;;;;;14.63;7.03;;;;;;;;;;5062467;28;20083;-73
2022/01/26 12:35:30;;;;;;;17.23;7.80;;;;;;;;;;5060020;28;20350;-73
2022/01/26 12:38:01;;;;;;;15.13;7.83;;;;;;;;;;5063761;28;20354;-71
2022/01/26 12:43:19;;;;;;;14.33;7.20;;;;;;;;;;5061045;28;20296;-74
2022/01/26 12:45:46;;;;;;;21.60;7.70;;;;;;;;;;5058092;28;20071;-76
2022/01/26 12:48:12;;;;;;;16.03;7.53;;;;;;;;;;5057907;28;20105;-72
2022/01/26 12:50:40;;;;;;;15.07;7.83;;;;;;;;;;5059199;28;20043;-72
2022/01/26 12:53:07;;;;;;;16.50;7.87;;;;;;;;;;5061801;28;20028;-73
2022/01/26 12:55:35;;;;;;;16.43;7.77;;;;;;;;;;5061160;28;20172;-72
2022/01/26 12:58:01;;;;;;;20.83;8.17;;;;;;;;;;5063159;28;20337;-71
2022/01/26 13:00:38;;;;;;;24.40;9.27;;;;;;;;;;5069166;28;20031;-74
2022/01/26 13:03:09;;;;;;;16.93;7.97;;;;;;;;;;5070856;28;20056;-71
2022/01/26 13:05:35;;;;;;;20.45;8.95;;;;;;;;;;5064672;28;20384;-73
2022/01/26 13:08:05;;;;;;;22.00;9.27;;;;;;;;;;5068249;28;20029;-72
2022/01/26 13:10:31;;;;;;;20.30;8.60;;;;;;;;;;5073053;28;20020;-72
2022/01/26 13:13:12;;;;;;;17.70;8.60;;;;;;;;;;5071848;28;20035;-73
2022/01/26 13:15:49;;;;;;;19.83;8.60;;;;;;;;;;5070047;28;20498;-71
2022/01/26 13:18:22;;;;;;;17.80;8.20;;;;;;;;;;5074656;28;20017;-71
2022/01/26 13:21:18;;;;;;;17.07;8.57;;;;;;;;;;5061115;28;20032;-72
2022/01/26 13:23:54;;;;;;;22.97;9.57;;;;;;;;;;5082526;28;20149;-71
2022/01/26 13:26:39;;;;;;;17.87;8.70;;;;;;;;;;5074478;28;20312;-70
2022/01/26 13:40:20;;;;;;;18.97;8.50;;;;;;;;;;5080844;28;20059;-72
2022/01/26 13:48:50;;;;;;;15.33;8.17;;;;;;;;;;5060909;28;20629;-73
2022/01/26 13:51:15;;;;;;;17.63;9.27;;;;;;;;;;5071339;28;20420;-71
2022/01/26 13:56:34;;;;;;;17.55;8.90;;;;;;;;;;5068890;28;20035;-72
2022/01/26 13:59:11;;;;;;;17.10;9.07;;;;;;;;;;5068381;28;20040;-72
2022/01/26 14:01:41;;;;;;;20.37;9.57;;;;;;;;;;5073658;28;20051;-71
2022/01/26 14:04:10;;;;;;;21.27;9.67;;;;;;;;;;5073709;28;20013;-71
2022/01/26 14:06:35;;;;;;;21.73;8.77;;;;;;;;;;5083869;28;20055;-71
2022/01/26 14:09:01;;;;;;;23.03;9.27;;;;;;;;;;5086519;28;20055;-72
2022/01/26 14:11:26;;;;;;;22.40;10.07;;;;;;;;;;5084781;28;20026;-73
2022/01/26 14:13:55;;;;;;;19.37;9.53;;;;;;;;;;5077059;28;20100;-71
2022/01/26 14:16:23;;;;;;;22.40;9.47;;;;;;;;;;5079059;28;20032;-70
2022/01/26 14:19:25;;;;;;;25.70;10.30;;;;;;;;;;5086610;28;20099;-72
2022/01/26 14:22:07;;;;;;;22.23;10.20;;;;;;;;;;5074839;28;20044;-72
2022/01/26 14:24:34;;;;;;;22.17;10.27;;;;;;;;;;5071776;28;20032;-73
2022/01/26 14:27:03;;;;;;;22.03;9.53;;;;;;;;;;5073006;28;20112;-72
2022/01/26 14:29:53;;;;;;;18.03;8.70;;;;;;;;;;5081283;28;20120;-72
2022/01/26 14:53:56;;;;;;;21.83;10.10;;;;;;;;;;5083833;28;20039;-73
2022/01/26 15:08:43;;;;;;;18.63;7.73;;;;;;;;;;5074822;28;20051;-74
2022/01/26 15:33:42;;;;;;;17.13;8.67;;;;;;;;;;5071130;28;20112;-72
2022/01/26 16:19:42;;;;;;;21.23;7.53;;;;;;;;;;5078950;28;20044;-77
2022/01/26 16:21:29;;;;;;;13.63;7.60;;;;;;;;;;5079860;28;20104;-74
2022/01/26 18:26:46;;;;;;;23.37;10.37;;;;;;;;;;5052280;28;20048;-73
2022/01/26 18:50:03;;;;;;;25.97;10.23;;;;;;;;;;5052533;28;20159;-72
2022/01/26 18:52:29;;;;;;;19.40;8.67;;;;;;;;;;5051344;28;20040;-73
2022/01/26 18:54:55;;;;;;;27.33;10.63;;;;;;;;;;5049345;28;20025;-73
2022/01/26 18:57:20;;;;;;;21.33;10.67;;;;;;;;;;5051137;28;20100;-71
2022/01/26 18:59:46;;;;;;;27.90;10.97;;;;;;;;;;5051400;28;20031;-71
2022/01/26 19:02:12;;;;;;;23.10;10.17;;;;;;;;;;5052404;28;20036;-72
2022/01/26 19:04:47;;;;;;;21.67;9.67;;;;;;;;;;5067205;28;20028;-71
2022/01/26 19:07:14;;;;;;;24.87;9.87;;;;;;;;;;5052038;28;20025;-71
2022/01/26 19:09:43;;;;;;;28.17;11.10;;;;;;;;;;5055729;28;20360;-73
2022/01/26 19:12:13;;;;;;;27.90;11.97;;;;;;;;;;5071913;28;20094;-72
2022/01/26 19:14:42;;;;;;;28.93;10.50;;;;;;;;;;5070356;28;20020;-72
2022/01/26 19:17:31;;;;;;;30.50;11.63;;;;;;;;;;5071298;28;20050;-72
2022/01/26 19:20:15;;;;;;;25.43;10.17;;;;;;;;;;5072048;28;20430;-73
2022/01/26 19:22:57;;;;;;;26.30;10.73;;;;;;;;;;5070828;28;20021;-70
2022/01/26 19:27:58;;;;;;;26.50;10.57;;;;;;;;;;5071055;28;20033;-72
2022/01/26 19:44:08;;;;;;;27.17;11.17;;;;;;;;;;5070562;28;20405;-71
2022/01/26 19:52:10;;;;;;;22.53;10.53;;;;;;;;;;5070169;28;20170;-73
2022/01/26 19:54:40;;;;;;;22.07;9.80;;;;;;;;;;5068144;28;20108;-71
2022/01/26 19:57:08;;;;;;;26.50;11.10;;;;;;;;;;5068573;28;20035;-70
2022/01/26 19:59:38;;;;;;;30.43;11.23;;;;;;;;;;5069973;28;20097;-72
2022/01/26 20:02:05;;;;;;;22.13;9.70;;;;;;;;;;5071707;28;20025;-71
2022/01/26 20:04:32;;;;;;;28.27;11.13;;;;;;;;;;5068989;28;20111;-71
2022/01/26 20:07:06;;;;;;;22.10;9.77;;;;;;;;;;5069363;28;20028;-72
2022/01/26 20:09:43;;;;;;;23.90;10.60;;;;;;;;;;5068868;28;20461;-72
2022/01/26 20:12:18;;;;;;;21.00;10.10;;;;;;;;;;5070368;28;20055;-71
2022/01/26 20:14:44;;;;;;;27.27;10.13;;;;;;;;;;5068371;28;20108;-72
2022/01/26 20:17:09;;;;;;;23.87;10.33;;;;;;;;;;5070409;28;20100;-70
2022/01/26 20:19:36;;;;;;;23.80;11.57;;;;;;;;;;5069741;28;20024;-71
2022/01/26 20:22:05;;;;;;;22.43;10.20;;;;;;;;;;5068645;28;20032;-70
2022/01/26 20:24:31;;;;;;;27.47;11.57;;;;;;;;;;5070093;28;20033;-72
2022/01/26 20:26:58;;;;;;;27.73;11.13;;;;;;;;;;5069768;28;20017;-73
2022/01/26 20:29:30;;;;;;;27.33;11.80;;;;;;;;;;5036370;28;20177;-72
2022/01/26 20:31:55;;;;;;;28.42;11.55;;;;;;;;;;5070737;28;20214;-73
2022/01/26 20:34:22;;;;;;;28.03;11.47;;;;;;;;;;5070326;28;20107;-72
2022/01/26 20:36:48;;;;;;;25.10;10.27;;;;;;;;;;5069807;28;20499;-74
2022/01/26 20:39:13;;;;;;;27.57;11.73;;;;;;;;;;5067831;28;20048;-73
2022/01/26 20:41:39;;;;;;;26.70;12.20;;;;;;;;;;5069418;28;20035;-71
2022/01/26 20:44:05;;;;;;;28.67;11.63;;;;;;;;;;5069427;28;20028;-72
2022/01/26 20:46:31;;;;;;;26.23;11.63;;;;;;;;;;5067994;28;20029;-72
2022/01/26 20:48:57;;;;;;;30.57;11.77;;;;;;;;;;5068067;28;20024;-73
2022/01/26 20:51:22;;;;;;;30.83;11.10;;;;;;;;;;5069415;28;20081;-70
2022/01/26 20:53:48;;;;;;;26.73;12.33;;;;;;;;;;5069453;28;20033;-71
2022/01/26 20:56:16;;;;;;;25.30;11.43;;;;;;;;;;5069465;28;20051;-71
2022/01/26 20:58:46;;;;;;;30.13;12.83;;;;;;;;;;5067954;28;20106;-71
2022/01/26 21:01:12;;;;;;;32.37;12.70;;;;;;;;;;5068446;28;20034;-72
2022/01/26 21:03:38;;;;;;;26.43;11.70;;;;;;;;;;5068474;28;20081;-71
2022/01/26 21:06:04;;;;;;;26.10;12.07;;;;;;;;;;5068245;28;20024;-70
2022/01/26 21:08:29;;;;;;;33.53;12.60;;;;;;;;;;5067624;28;20029;-72
2022/01/26 21:10:55;;;;;;;32.27;13.90;;;;;;;;;;5069213;28;20108;-72
2022/01/26 21:13:22;;;;;;;28.37;12.03;;;;;;;;;;5067648;28;20111;-72
2022/01/26 21:15:48;;;;;;;33.43;12.93;;;;;;;;;;5068604;28;20408;-72
2022/01/26 21:18:15;;;;;;;30.97;14.07;;;;;;;;;;5069233;28;20107;-72
2022/01/26 21:20:41;;;;;;;25.00;11.57;;;;;;;;;;5068946;28;20028;-71
2022/01/26 21:23:07;;;;;;;30.30;12.33;;;;;;;;;;5067338;28;20060;-73
2022/01/26 21:25:34;;;;;;;34.17;13.50;;;;;;;;;;5067314;28;20396;-72
2022/01/26 21:27:59;;;;;;;32.77;12.60;;;;;;;;;;5067418;28;20081;-72
2022/01/26 21:30:27;;;;;;;34.40;12.47;;;;;;;;;;5068591;28;20422;-73
2022/01/26 21:32:55;;;;;;;27.07;11.07;;;;;;;;;;5069137;28;20074;-71